Time;durP1;ratioP1;P1;durP2;ratioP2;P2;SDS_P1;SDS_P2;PMS_P1;PMS_P2;Temp;Humidity;BMP_temperature;BMP_pressure;BME280_temperature;BME280_humidity;BME280_pressure;Samples;Min_cycle;Max_cycle;Signal;HPM_P1;HPM_P2
2022/04/29 00:01:16;;;;;;;5.10;3.85;;;;;;;6.47;84.21;103195.66;5028570;28;20110;-74
2022/04/29 00:03:42;;;;;;;7.07;3.38;;;;;;;6.47;84.66;103200.91;5027267;28;20405;-74
2022/04/29 00:06:08;;;;;;;4.47;3.22;;;;;;;6.44;84.56;103193.16;5017592;28;20423;-75
2022/04/29 00:08:33;;;;;;;6.78;4.05;;;;;;;6.37;83.96;103183.84;4996371;28;20033;-74
2022/04/29 00:10:59;;;;;;;6.05;3.92;;;;;;;6.44;83.87;103193.16;5024111;28;20053;-74
2022/04/29 00:13:24;;;;;;;10.82;3.38;;;;;;;6.43;84.83;103191.47;5021540;28;20400;-74
2022/04/29 00:15:50;;;;;;;5.82;3.63;;;;;;;6.35;84.31;103172.56;5016585;28;20117;-75
2022/04/29 00:18:16;;;;;;;4.50;3.40;;;;;;;6.42;84.48;103188.91;5015872;28;20318;-75
2022/04/29 00:20:42;;;;;;;4.63;2.95;;;;;;;6.41;83.76;103187.22;5028568;28;20025;-74
2022/04/29 00:23:08;;;;;;;8.52;3.58;;;;;;;6.38;84.21;103196.91;5016892;28;20389;-75
2022/04/29 00:25:34;;;;;;;5.03;3.17;;;;;;;6.34;84.10;103184.84;5020093;28;20033;-75
2022/04/29 00:27:59;;;;;;;5.80;3.40;;;;;;;6.31;84.37;103186.72;5020963;28;20032;-75
2022/04/29 00:30:25;;;;;;;7.28;2.90;;;;;;;6.21;84.97;103165.28;5026208;28;20025;-75
2022/04/29 00:32:51;;;;;;;4.82;2.58;;;;;;;6.29;85.30;103184.19;5024624;28;20040;-75
2022/04/29 00:35:16;;;;;;;14.95;3.90;;;;;;;6.23;85.01;103183.56;5021715;28;20034;-75
2022/04/29 00:37:53;;;;;;;5.93;2.67;;;;;;;6.27;85.18;103179.91;5018506;28;20026;-75
2022/04/29 00:40:21;;;;;;;8.38;2.45;;;;;;;6.28;84.77;103184.25;5017827;28;20464;-75
2022/04/29 00:42:47;;;;;;;10.95;2.90;;;;;;;6.29;84.93;103184.19;5023096;28;20076;-75
2022/04/29 00:45:14;;;;;;;11.90;3.33;;;;;;;6.29;85.57;103185.94;5012965;28;20042;-75
2022/04/29 00:47:39;;;;;;;4.00;2.55;;;;;;;6.28;85.37;103184.25;5020974;28;20063;-74
2022/04/29 00:50:05;;;;;;;7.32;3.10;;;;;;;6.28;85.51;103179.00;5017912;28;20025;-75
2022/04/29 00:52:34;;;;;;;6.38;2.78;;;;;;;6.27;84.80;103172.91;5014806;28;20068;-75
2022/04/29 00:55:04;;;;;;;4.82;3.25;;;;;;;6.26;84.38;103162.47;5020177;28;20505;-75
2022/04/29 00:57:55;;;;;;;3.22;2.50;;;;;;;6.24;85.05;103165.16;5020923;28;20083;-75
2022/04/29 01:00:22;;;;;;;6.43;2.88;;;;;;;6.25;84.18;103166.00;5008159;28;20045;-75
2022/04/29 01:02:52;;;;;;;5.20;2.45;;;;;;;6.11;84.10;103141.22;5005745;28;20477;-75
2022/04/29 01:05:21;;;;;;;7.53;2.67;;;;;;;6.17;83.76;103159.31;5013679;28;20038;-74
2022/04/29 01:07:48;;;;;;;7.00;3.28;;;;;;;6.18;83.06;103153.19;5013031;28;20025;-74
2022/04/29 01:10:14;;;;;;;4.97;2.42;;;;;;;6.15;82.63;103157.69;5016597;28;20068;-74
2022/04/29 01:12:45;;;;;;;5.38;2.28;;;;;;;6.05;82.25;103153.72;5016792;28;20032;-75
2022/04/29 01:15:17;;;;;;;7.10;2.72;;;;;;;5.97;83.30;103146.19;5033270;28;20021;-75
2022/04/29 01:17:45;;;;;;;6.85;2.17;;;;;;;6.00;84.16;103153.94;5014224;28;20105;-75
2022/04/29 01:20:14;;;;;;;7.90;2.63;;;;;;;6.00;84.25;103156.56;5021489;28;20029;-75
2022/04/29 01:22:41;;;;;;;4.25;2.20;;;;;;;5.97;83.52;103152.28;5024942;28;20517;-75
2022/04/29 01:25:06;;;;;;;7.28;2.53;;;;;;;5.95;83.05;103145.41;5017027;28;20425;-75
2022/04/29 01:27:32;;;;;;;7.32;2.38;;;;;;;5.92;83.16;103137.63;5020769;28;20030;-75
2022/04/29 01:30:11;;;;;;;4.57;2.85;;;;;;;5.88;84.63;103142.16;5019723;28;20041;-76
2022/04/29 01:32:37;;;;;;;6.63;2.42;;;;;;;5.83;84.30;103131.00;5016400;28;20019;-75
2022/04/29 01:35:05;;;;;;;13.82;2.58;;;;;;;5.82;83.75;103131.06;5020961;28;20042;-75
2022/04/29 01:37:30;;;;;;;7.03;2.42;;;;;;;5.82;83.74;103128.47;5018456;28;20378;-74
2022/04/29 01:39:56;;;;;;;4.20;2.28;;;;;;;5.71;82.53;103114.03;5013706;28;20502;-76
2022/04/29 01:42:22;;;;;;;8.98;3.22;;;;;;;5.79;82.47;103121.53;5017949;28;20045;-75
2022/04/29 01:44:47;;;;;;;4.93;2.08;;;;;;;5.83;83.30;103130.16;5008189;28;20045;-75
2022/04/29 01:47:13;;;;;;;2.40;2.03;;;;;;;5.82;81.82;103134.53;5024197;28;20038;-75
2022/04/29 01:49:39;;;;;;;3.75;2.30;;;;;;;5.81;82.31;103138.06;5022321;28;20025;-75
2022/04/29 01:52:05;;;;;;;3.28;2.33;;;;;;;5.82;82.83;103136.31;4998814;28;20044;-75
2022/04/29 01:54:30;;;;;;;4.80;3.05;;;;;;;5.77;84.03;103126.88;5015447;28;20168;-75
2022/04/29 01:56:56;;;;;;;5.13;2.20;;;;;;;5.80;83.42;103140.78;5016923;28;20034;-75
2022/04/29 01:59:21;;;;;;;4.35;2.30;;;;;;;5.81;84.63;103145.06;5022557;28;20042;-75
2022/04/29 02:01:47;;;;;;;4.03;2.75;;;;;;;5.61;85.59;103120.53;5024088;28;20137;-75
2022/04/29 02:04:14;;;;;;;4.00;2.00;;;;;;;5.63;86.12;103123.94;5019527;28;20095;-75
2022/04/29 02:06:40;;;;;;;4.55;2.70;;;;;;;5.75;86.21;103133.94;5015868;28;20401;-75
2022/04/29 02:09:06;;;;;;;6.43;3.30;;;;;;;5.69;85.81;103123.72;5015448;28;20049;-75
2022/04/29 02:11:32;;;;;;;7.45;2.90;;;;;;;5.63;86.30;103112.63;5002598;28;20032;-76
2022/04/29 02:13:57;;;;;;;3.35;2.33;;;;;;;5.62;86.22;103111.78;5017120;28;20033;-75
2022/04/29 02:16:23;;;;;;;9.43;2.92;;;;;;;5.74;85.44;103121.75;5018386;28;20034;-75
2022/04/29 02:18:48;;;;;;;6.30;2.40;;;;;;;5.73;85.94;103114.81;5012771;28;20065;-75
2022/04/29 02:21:14;;;;;;;7.82;2.55;;;;;;;5.71;85.41;103100.91;5024145;28;20115;-75
2022/04/29 02:23:40;;;;;;;4.80;2.67;;;;;;;5.70;85.47;103101.81;5017817;28;20092;-75
2022/04/29 02:26:05;;;;;;;4.82;2.58;;;;;;;5.63;85.08;103094.28;5020959;28;20092;-75
2022/04/29 02:28:32;;;;;;;5.38;2.45;;;;;;;5.68;85.09;103122.03;5019672;28;20089;-75
2022/04/29 02:30:58;;;;;;;6.88;2.65;;;;;;;5.66;83.90;103113.38;5021543;28;20030;-76
2022/04/29 02:33:23;;;;;;;4.45;2.95;;;;;;;5.56;85.38;103093.69;5004892;28;20034;-75
2022/04/29 02:35:50;;;;;;;3.67;3.00;;;;;;;5.50;86.38;103084.28;5016548;28;20071;-75
2022/04/29 02:38:15;;;;;;;7.28;3.03;;;;;;;5.68;86.94;103114.16;5020395;28;20034;-75
2022/04/29 02:40:41;;;;;;;5.10;2.88;;;;;;;5.71;86.97;103116.63;4999010;28;20385;-76
2022/04/29 02:43:06;;;;;;;4.93;2.47;;;;;;;5.73;86.40;103112.19;5022812;28;20030;-75
2022/04/29 02:45:32;;;;;;;5.32;2.88;;;;;;;5.68;86.78;103101.06;5015885;28;20029;-76
2022/04/29 02:47:58;;;;;;;4.93;2.28;;;;;;;5.74;84.96;103110.41;5009747;28;20853;-75
2022/04/29 02:50:23;;;;;;;4.80;2.30;;;;;;;5.76;84.65;103106.81;5001663;28;20038;-76
2022/04/29 02:52:49;;;;;;;4.07;2.85;;;;;;;5.74;85.42;103100.78;5009797;28;20068;-75
2022/04/29 02:55:14;;;;;;;2.60;2.28;;;;;;;5.63;87.50;103097.75;4995285;28;20018;-76
2022/04/29 02:57:39;;;;;;;3.70;2.75;;;;;;;5.63;87.39;103097.75;4989488;28;20061;-76
2022/04/29 03:00:08;;;;;;;4.43;2.60;;;;;;;5.66;86.96;103096.78;5007160;28;20088;-76
2022/04/29 03:02:33;;;;;;;4.28;2.80;;;;;;;5.63;85.03;103097.75;5007443;28;20043;-76
2022/04/29 03:04:58;;;;;;;4.90;2.65;;;;;;;5.62;85.41;103106.53;5011182;28;20025;-75
2022/04/29 03:07:24;;;;;;;4.55;3.03;;;;;;;5.63;84.94;103103.00;5010645;28;20123;-76
2022/04/29 03:09:49;;;;;;;4.03;2.97;;;;;;;5.62;85.74;103101.31;5011924;28;20030;-76
2022/04/29 03:12:15;;;;;;;6.05;3.25;;;;;;;5.54;85.46;103090.28;5008938;28;20515;-76
2022/04/29 03:14:41;;;;;;;6.10;2.70;;;;;;;5.54;86.37;103087.66;5012221;28;20495;-76
2022/04/29 03:18:17;;;;;;;3.63;3.00;;;;;;;5.59;86.39;103092.69;5007315;28;20034;-75
2022/04/29 03:19:52;;;;;;;3.13;2.50;;;;;;;5.64;85.45;103107.34;5010685;28;20052;-77
2022/04/29 03:22:17;;;;;;;4.88;2.80;;;;;;;5.68;84.81;103108.03;4995177;28;20469;-75
2022/04/29 03:24:42;;;;;;;7.82;2.78;;;;;;;5.72;84.37;103101.75;5026414;28;20569;-76
2022/04/29 03:27:08;;;;;;;8.75;2.67;;;;;;;5.76;83.98;103100.72;5010310;28;20573;-76
2022/04/29 03:29:33;;;;;;;5.07;2.53;;;;;;;5.81;84.63;103100.53;5008642;28;20671;-76
2022/04/29 03:31:58;;;;;;;3.92;3.03;;;;;;;5.84;84.59;103090.78;5018585;28;20536;-75
2022/04/29 03:34:25;;;;;;;10.48;2.60;;;;;;;5.74;84.28;103073.72;5007127;28;20025;-76
2022/04/29 03:36:50;;;;;;;3.60;2.50;;;;;;;5.90;83.56;103097.53;4989797;28;20048;-75
2022/04/29 03:39:16;;;;;;;3.38;2.70;;;;;;;5.87;83.58;103097.66;5006343;28;20033;-74
2022/04/29 03:41:41;;;;;;;3.95;2.58;;;;;;;5.91;82.77;103100.09;5008359;28;20057;-76
2022/04/29 03:44:06;;;;;;;6.22;3.40;;;;;;;5.91;84.57;103102.72;5010030;28;20024;-75
2022/04/29 03:46:32;;;;;;;3.75;2.88;;;;;;;5.78;84.49;103078.78;5010877;28;20564;-75
2022/04/29 03:51:41;;;;;;;5.82;3.10;;;;;;;5.94;85.13;103096.47;5008315;28;20059;-75
2022/04/29 03:54:06;;;;;;;5.43;2.90;;;;;;;5.97;85.78;103089.38;5011667;28;20033;-75
2022/04/29 03:56:32;;;;;;;4.93;2.85;;;;;;;5.92;86.40;103086.09;5008313;28;20430;-75
2022/04/29 03:58:57;;;;;;;8.18;3.22;;;;;;;5.94;85.15;103096.47;5026561;28;20062;-75
2022/04/29 04:01:23;;;;;;;3.13;2.72;;;;;;;5.96;85.72;103098.16;5009231;28;20041;-75
2022/04/29 04:03:48;;;;;;;3.92;2.80;;;;;;;5.97;84.49;103099.03;5011164;28;20038;-75
2022/04/29 04:08:58;;;;;;;4.22;2.88;;;;;;;6.00;84.46;103092.78;5010162;28;20151;-75
2022/04/29 04:11:23;;;;;;;3.70;2.53;;;;;;;5.92;85.24;103072.09;5007949;28;20503;-75
2022/04/29 04:13:49;;;;;;;3.60;2.40;;;;;;;6.06;84.96;103095.16;5009892;28;20453;-75
2022/04/29 04:16:14;;;;;;;5.65;2.20;;;;;;;6.01;84.02;103087.50;5007532;28;20038;-75
2022/04/29 04:18:39;;;;;;;6.13;3.10;;;;;;;6.13;84.00;103101.84;4992530;28;20030;-75
2022/04/29 04:21:05;;;;;;;6.72;3.17;;;;;;;6.17;84.11;103106.03;5007525;28;20037;-76
2022/04/29 04:23:30;;;;;;;4.50;2.90;;;;;;;6.20;84.38;103097.19;5009022;28;20033;-75
2022/04/29 04:25:57;;;;;;;5.63;2.42;;;;;;;6.22;84.22;103097.97;5010248;28;20029;-75
2022/04/29 04:28:22;;;;;;;9.20;2.97;;;;;;;6.26;83.58;103102.16;5008299;28;20037;-76
2022/04/29 04:30:48;;;;;;;5.47;2.60;;;;;;;6.24;84.85;103096.13;5006849;28;20040;-75
2022/04/29 04:33:13;;;;;;;7.43;3.55;;;;;;;6.33;85.75;103099.19;5008690;28;20454;-75
2022/04/29 04:35:38;;;;;;;5.00;2.67;;;;;;;6.37;84.41;103102.53;5009317;28;20413;-76
2022/04/29 04:38:04;;;;;;;3.47;2.47;;;;;;;6.39;83.42;103109.41;5022429;28;20503;-75
2022/04/29 04:40:29;;;;;;;3.63;2.53;;;;;;;6.48;83.54;103107.31;5007128;28;20152;-75
2022/04/29 04:42:54;;;;;;;6.15;3.42;;;;;;;6.56;85.02;103111.31;5006032;28;20156;-76
2022/04/29 04:45:20;;;;;;;5.20;3.35;;;;;;;6.64;85.96;103118.84;5007784;28;20037;-75
2022/04/29 04:47:45;;;;;;;6.38;3.10;;;;;;;6.63;84.91;103106.63;5023502;28;20063;-75
2022/04/29 04:50:11;;;;;;;5.60;2.50;;;;;;;6.74;83.42;103111.41;5016261;28;20026;-75
2022/04/29 04:52:38;;;;;;;6.18;2.58;;;;;;;6.81;82.97;103107.56;5008924;28;20037;-75
2022/04/29 04:55:06;;;;;;;4.82;3.50;;;;;;;6.79;83.22;103089.28;5001874;28;20034;-75
2022/04/29 04:57:32;;;;;;;6.60;3.00;;;;;;;6.95;83.49;103102.53;4988321;28;20563;-75
2022/04/29 04:59:58;;;;;;;5.10;2.47;;;;;;;7.11;83.59;103104.44;5001672;28;20033;-75
2022/04/29 05:02:23;;;;;;;3.60;2.63;;;;;;;7.09;83.40;103080.03;5007515;28;20812;-75
2022/04/29 05:04:48;;;;;;;6.22;2.45;;;;;;;7.30;83.03;103104.44;4988857;28;20037;-75
2022/04/29 05:07:14;;;;;;;7.45;3.17;;;;;;;7.43;83.15;103109.97;4988389;28;20380;-76
2022/04/29 05:09:39;;;;;;;6.50;2.45;;;;;;;7.55;82.10;103111.97;5004016;28;20648;-76
2022/04/29 05:12:05;;;;;;;7.47;2.50;;;;;;;7.65;81.77;103107.97;5008946;28;20212;-75
2022/04/29 05:14:30;;;;;;;3.10;2.30;;;;;;;7.81;80.99;103126.47;4987168;28;20556;-75
2022/04/29 05:16:56;;;;;;;6.15;2.72;;;;;;;7.76;80.97;103110.94;5007163;28;20342;-75
2022/04/29 05:19:21;;;;;;;3.00;2.63;;;;;;;7.99;81.12;103116.81;5003236;28;20503;-75
2022/04/29 05:21:47;;;;;;;8.50;3.17;;;;;;;8.11;81.06;103120.63;5005804;28;20036;-77
2022/04/29 05:24:12;;;;;;;6.80;2.80;;;;;;;8.16;81.61;103102.81;4988611;28;20026;-76
2022/04/29 05:26:38;;;;;;;4.38;2.78;;;;;;;8.37;81.46;103117.47;5001515;28;20603;-75
2022/04/29 05:29:03;;;;;;;5.40;2.50;;;;;;;8.56;81.50;103120.03;5006950;28;20037;-76
2022/04/29 05:31:28;;;;;;;3.90;2.47;;;;;;;8.63;81.31;103104.78;5002295;28;20026;-76
2022/04/29 05:33:55;;;;;;;3.92;2.20;;;;;;;8.72;80.78;103104.28;5001505;28;20096;-76
2022/04/29 05:36:21;;;;;;;7.30;2.45;;;;;;;8.81;79.93;103110.81;5001435;28;20029;-75
2022/04/29 05:44:15;;;;;;;3.55;2.00;;;;;;;8.81;79.04;103118.72;5005551;28;20129;-78
2022/04/29 05:46:40;;;;;;;6.40;1.98;;;;;;;8.86;77.47;103124.56;4995766;28;20033;-75
2022/04/29 05:49:05;;;;;;;6.95;2.22;;;;;;;8.82;77.77;103123.91;4987376;28;20048;-76
2022/04/29 05:51:32;;;;;;;5.65;2.60;;;;;;;8.77;78.09;103127.72;5000969;28;20044;-74
2022/04/29 05:54:00;;;;;;;7.95;2.08;;;;;;;8.75;77.49;103119.88;5010032;28;20028;-74
2022/04/29 05:56:26;;;;;;;7.10;2.83;;;;;;;8.64;77.26;103109.09;5004958;28;20316;-74
2022/04/29 05:58:51;;;;;;;5.28;2.30;;;;;;;8.73;77.19;103118.28;4990902;28;20628;-74
2022/04/29 06:01:17;;;;;;;6.43;2.15;;;;;;;8.78;77.27;103124.16;4993844;28;20044;-74
2022/04/29 06:03:42;;;;;;;5.70;2.47;;;;;;;8.88;77.23;103125.34;5005460;28;20030;-74
2022/04/29 06:06:07;;;;;;;6.43;1.85;;;;;;;9.01;77.62;103123.75;5012179;28;20061;-74
2022/04/29 06:08:33;;;;;;;3.50;1.77;;;;;;;8.91;76.30;103116.47;5007307;28;20501;-74
2022/04/29 06:10:58;;;;;;;3.90;2.10;;;;;;;8.89;76.18;103113.91;5011888;28;20374;-73
2022/04/29 06:13:23;;;;;;;2.60;1.83;;;;;;;9.07;77.07;103126.03;4983169;28;20087;-74
2022/04/29 06:15:49;;;;;;;3.17;1.83;;;;;;;9.10;76.74;103126.81;5004747;28;20544;-75
2022/04/29 06:18:14;;;;;;;2.30;1.52;;;;;;;9.07;76.89;103107.59;5003221;28;20029;-74
2022/04/29 06:20:40;;;;;;;4.55;1.55;;;;;;;9.28;77.12;103128.44;5005255;28;20436;-75
2022/04/29 06:23:05;;;;;;;4.60;1.90;;;;;;;9.33;75.76;103121.13;4987995;28;20278;-74
2022/04/29 06:25:30;;;;;;;5.65;1.40;;;;;;;9.45;75.95;103119.56;5006743;28;20372;-74
2022/04/29 06:27:56;;;;;;;5.32;1.40;;;;;;;9.43;74.58;103119.69;5011941;28;20587;-74
2022/04/29 06:30:21;;;;;;;2.47;1.30;;;;;;;9.30;74.45;103102.88;5001959;28;20515;-74
2022/04/29 06:32:46;;;;;;;1.70;0.98;;;;;;;9.34;72.93;103112.28;5011285;28;20344;-75
2022/04/29 06:35:12;;;;;;;3.38;1.30;;;;;;;9.42;73.24;103122.38;4985919;28;20030;-74
2022/04/29 06:37:37;;;;;;;2.10;1.48;;;;;;;9.56;73.66;103124.22;5007613;28;20036;-75
2022/04/29 06:40:03;;;;;;;4.15;1.48;;;;;;;9.53;72.54;103124.41;5004297;28;20137;-75
2022/04/29 06:42:29;;;;;;;3.67;1.58;;;;;;;9.57;73.49;103120.66;4994888;28;20042;-74
2022/04/29 06:44:55;;;;;;;5.72;2.10;;;;;;;9.48;73.18;103106.22;5014100;28;20030;-75
2022/04/29 06:47:20;;;;;;;2.55;1.67;;;;;;;9.59;73.57;103129.34;4998866;28;20033;-75
2022/04/29 06:49:46;;;;;;;6.85;2.20;;;;;;;9.47;74.74;103118.56;4994658;28;20036;-76
2022/04/29 06:52:11;;;;;;;5.32;1.92;;;;;;;9.52;74.24;103122.72;5005380;28;20448;-75
2022/04/29 06:54:37;;;;;;;4.22;1.90;;;;;;;9.47;74.51;103108.03;5006199;28;20022;-76
2022/04/29 06:57:02;;;;;;;2.47;1.60;;;;;;;9.62;74.17;103119.47;5001312;28;20034;-75
2022/04/29 06:59:28;;;;;;;3.53;1.58;;;;;;;9.68;73.85;103113.84;5003481;28;20105;-75
2022/04/29 07:01:54;;;;;;;5.78;1.90;;;;;;;9.81;73.92;103113.97;5008840;28;20029;-75
2022/04/29 07:04:20;;;;;;;6.03;2.10;;;;;;;9.84;72.64;103124.38;4987034;28;20038;-73
2022/04/29 07:06:45;;;;;;;5.50;1.70;;;;;;;9.87;73.17;103128.59;5004871;28;20518;-75
2022/04/29 07:09:10;;;;;;;2.33;1.50;;;;;;;9.98;72.12;103125.34;5002175;28;20037;-74
2022/04/29 07:11:36;;;;;;;3.72;1.40;;;;;;;10.09;72.12;103129.03;5001840;28;20034;-74
2022/04/29 07:14:02;;;;;;;2.53;1.20;;;;;;;10.23;71.10;103120.28;5003150;28;20694;-74
2022/04/29 07:16:28;;;;;;;3.38;1.00;;;;;;;10.35;69.93;103128.47;5006772;28;20030;-74
2022/04/29 07:18:53;;;;;;;2.70;1.45;;;;;;;10.58;69.01;103134.97;5001513;28;20104;-74
2022/04/29 07:21:18;;;;;;;4.53;1.60;;;;;;;10.57;68.00;103122.72;5004450;28;20491;-74
2022/04/29 07:23:44;;;;;;;2.80;1.00;;;;;;;10.64;67.56;103140.72;5002927;28;20033;-74
2022/04/29 07:26:09;;;;;;;5.45;1.00;;;;;;;10.85;67.21;103132.44;5012393;28;20417;-75
2022/04/29 07:28:34;;;;;;;3.85;0.98;;;;;;;11.08;66.54;103139.75;4976007;28;20329;-76
2022/04/29 07:31:00;;;;;;;6.50;1.25;;;;;;;11.06;65.76;103133.72;4995857;28;20142;-74
2022/04/29 07:33:26;;;;;;;5.22;1.42;;;;;;;11.04;66.11;103142.66;4995146;28;20143;-75
2022/04/29 07:44:04;;;;;;;2.83;1.30;;;;;;;10.91;67.53;103126.75;4989391;28;20044;-75
2022/04/29 07:46:29;;;;;;;5.38;1.40;;;;;;;10.95;67.12;103132.69;4975922;28;20041;-74
2022/04/29 07:48:55;;;;;;;2.95;1.30;;;;;;;10.86;67.31;103136.75;5001148;28;20022;-74
2022/04/29 07:51:20;;;;;;;3.08;1.13;;;;;;;10.69;67.92;103128.09;5013217;28;20445;-74
2022/04/29 07:53:45;;;;;;;2.95;1.25;;;;;;;10.62;67.83;103132.03;5009636;28;20409;-74
2022/04/29 07:56:11;;;;;;;5.15;1.38;;;;;;;10.64;68.27;103135.44;5006562;28;20034;-75
2022/04/29 07:58:37;;;;;;;2.33;1.60;;;;;;;10.71;68.02;103141.19;4995684;28;20372;-75
2022/04/29 08:01:04;;;;;;;5.75;1.45;;;;;;;10.62;68.51;103132.03;5007709;28;20033;-76
2022/04/29 08:03:29;;;;;;;4.43;1.98;;;;;;;10.63;68.31;103138.19;5006602;28;20064;-75
2022/04/29 08:05:55;;;;;;;4.68;1.75;;;;;;;10.75;69.62;103134.78;5007828;28;20042;-75
2022/04/29 08:08:21;;;;;;;4.05;1.63;;;;;;;10.78;69.11;103146.94;5010303;28;20472;-76
2022/04/29 08:10:46;;;;;;;2.90;1.23;;;;;;;10.73;68.78;103146.38;5013335;28;20038;-76
2022/04/29 08:13:12;;;;;;;8.05;1.40;;;;;;;10.80;68.73;103142.41;5009034;28;20025;-75
2022/04/29 08:15:37;;;;;;;4.68;1.70;;;;;;;10.70;68.70;103128.94;5013547;28;20267;-76
2022/04/29 08:18:04;;;;;;;6.00;1.38;;;;;;;10.83;69.56;103144.88;5003557;28;20480;-76
2022/04/29 08:20:30;;;;;;;3.65;1.23;;;;;;;10.59;68.56;103126.97;5009694;28;20084;-75
2022/04/29 08:22:55;;;;;;;4.95;1.40;;;;;;;10.66;68.80;103143.28;5009328;28;20025;-75
2022/04/29 08:25:21;;;;;;;3.80;1.23;;;;;;;10.43;69.68;103145.53;5009371;28;20037;-75
2022/04/29 08:27:47;;;;;;;4.97;1.50;;;;;;;10.31;69.14;103126.94;5010573;28;20026;-75
2022/04/29 08:30:14;;;;;;;2.78;1.30;;;;;;;10.55;68.85;103145.72;5001851;28;20109;-75
2022/04/29 08:32:41;;;;;;;4.95;1.58;;;;;;;10.58;69.28;103145.53;5011624;28;20524;-75
2022/04/29 08:35:11;;;;;;;5.00;1.30;;;;;;;10.55;67.59;103136.00;5007166;28;20427;-75
2022/04/29 08:37:38;;;;;;;7.28;1.83;;;;;;;10.66;67.96;103138.84;4971685;28;20030;-76
2022/04/29 08:40:08;;;;;;;2.90;1.83;;;;;;;10.93;68.23;103140.72;5002557;28;20275;-75
2022/04/29 08:42:38;;;;;;;4.72;1.67;;;;;;;11.03;67.70;103131.25;5006233;28;20091;-75
2022/04/29 08:45:16;;;;;;;4.80;1.42;;;;;;;11.09;66.95;103130.88;5013294;28;20029;-76
2022/04/29 08:47:43;;;;;;;3.65;1.67;;;;;;;10.97;65.87;103109.66;5012540;28;20301;-75
2022/04/29 08:50:19;;;;;;;5.22;1.58;;;;;;;11.05;66.52;103134.66;5011357;28;20030;-75
2022/04/29 08:52:46;;;;;;;5.38;1.50;;;;;;;11.23;66.22;103134.44;5009121;28;20173;-76
2022/04/29 09:00:42;;;;;;;3.38;2.08;;;;;;;11.49;65.63;103123.00;4998362;28;20100;-75
2022/04/29 09:03:16;;;;;;;4.90;1.85;;;;;;;11.69;65.55;103134.06;5005325;28;20033;-76
2022/04/29 09:05:42;;;;;;;4.40;1.80;;;;;;;11.84;64.02;103132.22;5004394;28;20099;-75
2022/04/29 09:08:12;;;;;;;3.38;1.60;;;;;;;11.89;63.32;103124.88;5011230;28;20036;-76
2022/04/29 09:10:48;;;;;;;2.97;1.45;;;;;;;11.82;62.47;103119.06;5007109;28;20044;-76
2022/04/29 09:13:28;;;;;;;5.15;1.63;;;;;;;12.00;61.96;103127.63;5004161;28;20021;-75
2022/04/29 09:15:59;;;;;;;2.90;1.33;;;;;;;12.13;63.23;103130.31;5009938;28;20037;-75
2022/04/29 09:18:55;;;;;;;3.70;1.70;;;;;;;12.35;62.11;103130.53;5014720;28;20029;-76
2022/04/29 09:21:29;;;;;;;2.45;1.38;;;;;;;12.21;60.88;103133.25;5017517;28;20108;-76
2022/04/29 09:24:00;;;;;;;4.90;1.60;;;;;;;12.42;61.31;103140.69;5008715;28;20133;-74
2022/04/29 09:26:33;;;;;;;1.90;1.50;;;;;;;12.50;60.04;103144.50;4999070;28;20025;-75
2022/04/29 09:29:12;;;;;;;6.50;1.40;;;;;;;12.39;59.93;103143.53;5005838;28;20033;-76
2022/04/29 09:31:55;;;;;;;3.70;1.50;;;;;;;12.16;59.85;103132.72;5003841;28;20033;-75
2022/04/29 09:34:21;;;;;;;4.53;1.73;;;;;;;12.23;61.81;103141.94;5001948;28;20038;-76
2022/04/29 09:36:47;;;;;;;5.00;1.70;;;;;;;12.31;61.32;103136.97;5011672;28;20489;-74
2022/04/29 09:39:28;;;;;;;3.92;1.67;;;;;;;12.39;59.86;103132.94;5008952;28;20029;-74
2022/04/29 09:42:01;;;;;;;2.63;1.90;;;;;;;12.08;62.79;103140.34;5000375;28;20050;-76
2022/04/29 09:44:32;;;;;;;3.42;1.70;;;;;;;12.10;62.00;103138.44;5010286;28;20049;-75
2022/04/29 09:47:13;;;;;;;;;;;;;;;12.26;61.93;103138.22;5009321;28;21005;-73
2022/04/29 09:49:40;;;;;;;3.72;2.00;;;;;;;12.19;62.39;103121.91;5011990;28;20286;-75
2022/04/29 09:52:07;;;;;;;4.72;1.58;;;;;;;12.18;61.66;103132.63;5014684;28;20108;-75
2022/04/29 09:54:37;;;;;;;6.13;1.60;;;;;;;12.16;61.98;103138.03;4995947;28;20039;-73
2022/04/29 09:57:13;;;;;;;3.70;2.25;;;;;;;12.22;62.34;103120.88;5000956;28;20029;-73
2022/04/29 09:59:43;;;;;;;2.95;2.08;;;;;;;12.41;62.34;103137.22;5007167;28;20211;-75
2022/04/29 10:02:11;;;;;;;5.75;2.10;;;;;;;12.16;61.41;103123.94;5005059;28;20026;-77
2022/04/29 10:04:40;;;;;;;4.50;1.90;;;;;;;11.93;60.79;103111.31;4999359;28;20402;-74
2022/04/29 10:07:13;;;;;;;3.85;2.10;;;;;;;12.14;63.38;103124.88;5013116;28;20034;-74
2022/04/29 10:09:40;;;;;;;2.97;1.88;;;;;;;12.13;62.32;103135.59;5011729;28;20116;-75
2022/04/29 10:12:17;;;;;;;2.30;1.75;;;;;;;11.96;61.93;103144.66;5012698;28;20116;-75
2022/04/29 10:14:44;;;;;;;3.38;2.05;;;;;;;12.02;62.24;103130.16;5013606;28;20062;-75
2022/04/29 10:23:08;;;;;;;3.17;2.17;;;;;;;11.81;62.57;103154.44;4993456;28;20119;-73
2022/04/29 10:25:33;;;;;;;;;;;;;;;11.84;61.69;103145.44;4996745;28;20437;-72
2022/04/29 10:28:00;;;;;;;5.45;2.13;;;;;;;11.99;61.88;103136.50;4995985;28;19932;-74
2022/04/29 10:30:38;;;;;;;4.22;1.98;;;;;;;11.97;60.42;103154.28;4995272;28;20085;-73
2022/04/29 10:33:12;;;;;;;4.07;2.20;;;;;;;11.69;61.46;103142.88;4996155;28;20030;-73
2022/04/29 10:35:43;;;;;;;4.28;2.13;;;;;;;11.58;61.47;103157.75;5000308;28;20018;-72
2022/04/29 10:38:17;;;;;;;4.65;1.70;;;;;;;11.58;61.83;103157.75;4997156;28;20446;-75
2022/04/29 10:40:44;;;;;;;5.15;1.65;;;;;;;11.70;62.67;103162.25;4995521;28;20050;-74
2022/04/29 10:43:13;;;;;;;2.90;1.50;;;;;;;11.91;61.00;103163.50;4994430;28;20022;-73
2022/04/29 10:46:05;;;;;;;3.75;1.85;;;;;;;12.01;60.14;103160.22;4996648;28;20456;-74
2022/04/29 10:48:34;;;;;;;2.67;1.70;;;;;;;12.00;60.06;103169.09;4979620;28;20263;-73
2022/04/29 10:51:12;;;;;;;5.90;1.80;;;;;;;12.13;59.58;103160.25;4960924;28;20099;-74
2022/04/29 10:53:40;;;;;;;2.50;1.70;;;;;;;12.23;59.37;103168.41;4974296;28;20855;-74
2022/04/29 10:56:30;;;;;;;3.30;1.75;;;;;;;12.12;59.98;103163.00;4977373;28;20438;-74
2022/04/29 10:59:09;;;;;;;4.38;1.73;;;;;;;12.14;60.89;103161.94;4975247;28;20043;-74
2022/04/29 11:01:36;;;;;;;2.85;1.60;;;;;;;12.12;58.68;103155.06;4976673;28;20033;-73
2022/04/29 11:04:04;;;;;;;2.17;1.70;;;;;;;12.38;59.84;103157.75;4979744;28;20406;-73
2022/04/29 11:06:38;;;;;;;3.80;1.58;;;;;;;12.48;58.88;103145.56;4985417;28;20561;-74
2022/04/29 11:09:24;;;;;;;1.88;1.50;;;;;;;12.97;57.50;103147.41;4973780;28;20788;-74
2022/04/29 11:11:49;;;;;;;3.35;1.90;;;;;;;13.21;57.47;103143.94;4982000;28;20150;-74
2022/04/29 11:14:15;;;;;;;2.33;1.80;;;;;;;13.51;57.29;103133.78;4956264;28;20450;-74
2022/04/29 11:17:14;;;;;;;3.40;2.05;;;;;;;13.74;55.85;103137.38;4968618;28;20036;-74
2022/04/29 11:19:45;;;;;;;3.25;1.60;;;;;;;13.86;55.23;103146.22;4980452;28;20233;-74
2022/04/29 11:25:01;;;;;;;5.03;1.77;;;;;;;13.94;54.52;103157.13;4996217;28;19977;-74
2022/04/29 11:27:31;;;;;;;4.65;1.92;;;;;;;14.13;55.35;103142.44;5003387;28;20040;-74
2022/04/29 11:30:01;;;;;;;2.35;1.55;;;;;;;14.28;55.74;103148.38;5001495;28;20033;-75
2022/04/29 11:32:27;;;;;;;4.10;1.63;;;;;;;14.10;54.76;103148.00;5014929;28;20448;-73
2022/04/29 11:35:03;;;;;;;2.35;1.20;;;;;;;13.98;55.89;103152.44;5003824;28;20280;-74
2022/04/29 11:37:30;;;;;;;3.30;1.52;;;;;;;13.85;55.96;103146.34;5003783;28;20040;-73
2022/04/29 11:39:56;;;;;;;4.40;1.67;;;;;;;13.64;56.79;103138.19;5003709;28;20147;-75
2022/04/29 11:42:22;;;;;;;3.83;1.50;;;;;;;13.57;56.61;103145.75;5001247;28;20420;-74
2022/04/29 11:44:50;;;;;;;7.75;1.70;;;;;;;13.54;57.82;103148.63;5008871;28;20109;-72
2022/04/29 11:47:17;;;;;;;6.85;1.75;;;;;;;13.54;56.92;103122.97;4998092;28;20111;-74
2022/04/29 11:49:43;;;;;;;4.72;1.83;;;;;;;13.76;57.13;103134.59;5017108;28;20431;-73
2022/04/29 11:52:25;;;;;;;7.32;1.60;;;;;;;13.89;56.67;103132.75;5015700;28;20033;-75
2022/04/29 11:54:52;;;;;;;3.15;1.60;;;;;;;13.63;57.01;103117.91;4998580;28;20540;-75
2022/04/29 11:57:18;;;;;;;2.38;1.40;;;;;;;13.77;55.74;103128.34;5000372;28;20326;-75
2022/04/29 11:59:44;;;;;;;4.22;2.08;;;;;;;14.08;55.31;103128.66;5000737;28;20033;-75
2022/04/29 12:02:11;;;;;;;2.97;1.00;;;;;;;13.68;55.29;103131.69;5020222;28;20033;-77
2022/04/29 12:04:36;;;;;;;2.85;1.40;;;;;;;13.24;54.69;103088.03;5013576;28;20022;-76
2022/04/29 12:07:05;;;;;;;5.55;1.92;;;;;;;13.43;55.38;103132.66;5010470;28;20619;-75